PFCB

Chenega Bay Airport

Airport
ICAO code
PFCB
IATA Code
NCN
Summary
ICAO Region
NAM
ICAO Territory
Location

, Alaska

Serving
Chenega
Elevation
72 ft
Coordinates
60° 4' 38" N , 147° 59' 31" W
Metar
PFCB 200715Z AUTO 36003KT 10SM CLR 12/11 A3012 RMK AO2 T01210108

Runways

Designator Length Width Surface Rops
15/33 914 23 GRAVEL-G No/No

Airport map

Aerial View

SKYbrary Partners:

Safety knowledge contributed by: